Time,TemperatureF,DewpointF,PressureIn,WindDirection,WindDirectionDegrees,WindSpeedMPH,WindSpeedGustMPH,Humidity,HourlyPrecipIn,Conditions,Clouds,dailyrainin,SolarRadiationWatts/m^2,SoftwareType,DateUTC
2013-05-25 00:13:00,36.0,35.0,-100.00,West,265,0.0,4.0,98,0.00,,,0.00,1.000000,,2013-05-25 04:13:00,
2013-05-25 00:23:00,36.0,35.0,-100.00,West,265,0.0,4.0,98,0.00,,,0.00,1.000000,,2013-05-25 04:23:00,
2013-05-25 00:33:00,36.0,35.0,-100.00,West,265,0.0,4.0,98,0.00,,,0.00,1.000000,,2013-05-25 04:33:00,
2013-05-25 00:43:00,36.0,35.0,-100.00,West,265,0.0,4.0,98,0.00,,,0.00,1.000000,,2013-05-25 04:43:00,
2013-05-25 01:12:00,34.0,34.0,-100.00,NNW,348,0.0,3.0,98,0.00,,,0.00,1.000000,,2013-05-25 05:12:00,
2013-05-25 01:22:00,34.0,34.0,-100.00,NNW,348,0.0,3.0,98,0.00,,,0.00,1.000000,,2013-05-25 05:22:00,
2013-05-25 01:32:00,34.0,34.0,-100.00,NNW,348,0.0,3.0,98,0.00,,,0.00,1.000000,,2013-05-25 05:32:00,
2013-05-25 01:43:00,34.0,34.0,-100.00,NNW,348,0.0,3.0,98,0.00,,,0.00,1.000000,,2013-05-25 05:43:00,
2013-05-25 02:12:00,33.0,33.0,-100.00,WSW,257,3.0,3.0,99,0.00,,,0.00,0.000000,,2013-05-25 06:12:00,
2013-05-25 02:22:00,33.0,33.0,-100.00,WSW,257,3.0,3.0,99,0.00,,,0.00,0.000000,,2013-05-25 06:22:00,
2013-05-25 02:32:00,33.0,33.0,-100.00,WSW,257,3.0,3.0,99,0.00,,,0.00,0.000000,,2013-05-25 06:32:00,
2013-05-25 02:42:00,33.0,33.0,-100.00,WSW,257,3.0,3.0,99,0.00,,,0.00,0.000000,,2013-05-25 06:42:00,
2013-05-25 03:11:00,32.0,32.0,-100.00,NNW,329,1.0,3.0,100,0.00,,,0.00,0.000000,,2013-05-25 07:11:00,
2013-05-25 03:22:00,32.0,32.0,-100.00,NNW,329,1.0,3.0,100,0.00,,,0.00,0.000000,,2013-05-25 07:22:00,
2013-05-25 03:32:00,32.0,32.0,-100.00,NNW,329,1.0,3.0,100,0.00,,,0.00,0.000000,,2013-05-25 07:32:00,
2013-05-25 03:42:00,32.0,32.0,-100.00,NNW,329,1.0,3.0,100,0.00,,,0.00,0.000000,,2013-05-25 07:42:00,
2013-05-25 04:11:00,31.0,31.0,-100.00,NNW,342,0.0,4.0,100,0.00,,,0.00,0.000000,,2013-05-25 08:11:00,
2013-05-25 04:23:00,31.0,31.0,-100.00,NNW,342,0.0,4.0,100,0.00,,,0.00,0.000000,,2013-05-25 08:23:00,
2013-05-25 04:32:00,31.0,31.0,-100.00,NNW,342,0.0,4.0,100,0.00,,,0.00,0.000000,,2013-05-25 08:32:00,
2013-05-25 04:42:00,31.0,31.0,-100.00,NNW,342,0.0,4.0,100,0.00,,,0.00,0.000000,,2013-05-25 08:42:00,
2013-05-25 05:11:00,31.0,31.0,-100.00,SE,129,1.0,4.0,100,0.00,,,0.00,0.000000,,2013-05-25 09:11:00,
2013-05-25 05:21:00,31.0,31.0,-100.00,SE,129,1.0,4.0,100,0.00,,,0.00,0.000000,,2013-05-25 09:21:00,
2013-05-25 05:33:00,31.0,31.0,-100.00,SE,129,1.0,4.0,100,0.00,,,0.00,0.000000,,2013-05-25 09:33:00,
2013-05-25 05:43:00,31.0,31.0,-100.00,SE,129,1.0,4.0,100,0.00,,,0.00,0.000000,,2013-05-25 09:43:00,
2013-05-25 06:13:00,31.0,31.0,-100.00,ENE,71,0.0,3.0,100,0.00,,,0.00,1.000000,,2013-05-25 10:13:00,
2013-05-25 06:23:00,31.0,31.0,-100.00,ENE,71,0.0,3.0,100,0.00,,,0.00,1.000000,,2013-05-25 10:23:00,
2013-05-25 06:33:00,31.0,31.0,-100.00,ENE,71,0.0,3.0,100,0.00,,,0.00,1.000000,,2013-05-25 10:33:00,
2013-05-25 06:42:00,31.0,31.0,-100.00,ENE,71,0.0,3.0,100,0.00,,,0.00,1.000000,,2013-05-25 10:42:00,
2013-05-25 07:12:00,34.0,34.0,-100.00,NW,319,1.0,3.0,99,0.00,,,0.00,22.000000,,2013-05-25 11:12:00,
2013-05-25 07:22:00,34.0,34.0,-100.00,NW,319,1.0,3.0,99,0.00,,,0.00,22.000000,,2013-05-25 11:22:00,
2013-05-25 07:32:00,34.0,34.0,-100.00,NW,319,1.0,3.0,99,0.00,,,0.00,22.000000,,2013-05-25 11:32:00,
2013-05-25 07:42:00,34.0,34.0,-100.00,NW,319,1.0,3.0,99,0.00,,,0.00,22.000000,,2013-05-25 11:42:00,
2013-05-25 08:12:00,40.0,37.0,-100.00,North,4,4.0,7.0,88,0.00,,,0.00,143.000000,,2013-05-25 12:12:00,
2013-05-25 08:22:00,40.0,37.0,-100.00,North,4,4.0,7.0,88,0.00,,,0.00,143.000000,,2013-05-25 12:22:00,
2013-05-25 08:32:00,40.0,37.0,-100.00,North,4,4.0,7.0,88,0.00,,,0.00,143.000000,,2013-05-25 12:32:00,
2013-05-25 08:42:00,40.0,37.0,-100.00,North,4,4.0,7.0,88,0.00,,,0.00,143.000000,,2013-05-25 12:42:00,
2013-05-25 09:11:00,48.0,39.0,-100.00,NE,42,3.0,6.0,70,0.00,,,0.00,321.000000,,2013-05-25 13:11:00,
2013-05-25 09:22:00,48.0,39.0,-100.00,NE,42,3.0,6.0,70,0.00,,,0.00,321.000000,,2013-05-25 13:22:00,
2013-05-25 09:32:00,48.0,39.0,-100.00,NE,42,3.0,6.0,70,0.00,,,0.00,321.000000,,2013-05-25 13:32:00,
2013-05-25 09:42:00,48.0,39.0,-100.00,NE,42,3.0,6.0,70,0.00,,,0.00,321.000000,,2013-05-25 13:42:00,
2013-05-25 10:11:00,52.0,35.0,-100.00,SE,129,4.0,7.0,53,0.00,,,0.00,492.000000,,2013-05-25 14:11:00,
2013-05-25 10:22:00,52.0,35.0,-100.00,SE,129,4.0,7.0,53,0.00,,,0.00,492.000000,,2013-05-25 14:22:00,
2013-05-25 10:32:00,52.0,35.0,-100.00,SE,129,4.0,7.0,53,0.00,,,0.00,492.000000,,2013-05-25 14:32:00,
2013-05-25 10:42:00,52.0,35.0,-100.00,SE,129,4.0,7.0,53,0.00,,,0.00,492.000000,,2013-05-25 14:42:00,
2013-05-25 11:12:00,55.0,36.0,-100.00,North,352,4.0,7.0,49,0.00,,,0.00,652.000000,,2013-05-25 15:12:00,
2013-05-25 11:22:00,55.0,36.0,-100.00,North,352,4.0,7.0,49,0.00,,,0.00,652.000000,,2013-05-25 15:22:00,
2013-05-25 11:33:00,55.0,36.0,-100.00,North,352,4.0,7.0,49,0.00,,,0.00,652.000000,,2013-05-25 15:33:00,
2013-05-25 11:43:00,55.0,36.0,-100.00,North,352,4.0,7.0,49,0.00,,,0.00,652.000000,,2013-05-25 15:43:00,
2013-05-25 12:12:00,56.0,34.0,-100.00,NNE,22,7.0,14.0,43,0.00,,,0.00,765.000000,,2013-05-25 16:12:00,
2013-05-25 12:23:00,56.0,34.0,-100.00,NNE,22,7.0,14.0,43,0.00,,,0.00,765.000000,,2013-05-25 16:23:00,
2013-05-25 12:33:00,56.0,34.0,-100.00,NNE,22,7.0,14.0,43,0.00,,,0.00,765.000000,,2013-05-25 16:33:00,
2013-05-25 12:42:00,56.0,34.0,-100.00,NNE,22,7.0,14.0,43,0.00,,,0.00,765.000000,,2013-05-25 16:42:00,
2013-05-25 13:11:00,57.0,35.0,-100.00,NE,52,6.0,17.0,43,0.00,,,0.00,866.000000,,2013-05-25 17:11:00,
2013-05-25 13:22:00,57.0,35.0,-100.00,NE,52,6.0,17.0,43,0.00,,,0.00,866.000000,,2013-05-25 17:22:00,
2013-05-25 13:32:00,57.0,35.0,-100.00,NE,52,6.0,17.0,43,0.00,,,0.00,866.000000,,2013-05-25 17:32:00,
2013-05-25 13:42:00,57.0,35.0,-100.00,NE,52,6.0,17.0,43,0.00,,,0.00,866.000000,,2013-05-25 17:42:00,
2013-05-25 14:12:00,60.0,39.0,-100.00,NNE,16,5.0,13.0,45,0.00,,,0.00,915.000000,,2013-05-25 18:12:00,
2013-05-25 14:22:00,60.0,39.0,-100.00,NNE,16,5.0,13.0,45,0.00,,,0.00,915.000000,,2013-05-25 18:22:00,
2013-05-25 14:32:00,60.0,39.0,-100.00,NNE,16,5.0,13.0,45,0.00,,,0.00,915.000000,,2013-05-25 18:32:00,
2013-05-25 14:42:00,60.0,39.0,-100.00,NNE,16,5.0,13.0,45,0.00,,,0.00,915.000000,,2013-05-25 18:42:00,
2013-05-25 15:11:00,60.0,37.0,-100.00,ENE,76,6.0,12.0,42,0.00,,,0.00,912.000000,,2013-05-25 19:11:00,
2013-05-25 15:22:00,60.0,37.0,-100.00,ENE,76,6.0,12.0,42,0.00,,,0.00,912.000000,,2013-05-25 19:22:00,
2013-05-25 15:32:00,60.0,37.0,-100.00,ENE,76,6.0,12.0,42,0.00,,,0.00,912.000000,,2013-05-25 19:32:00,
2013-05-25 15:42:00,60.0,37.0,-100.00,ENE,76,6.0,12.0,42,0.00,,,0.00,912.000000,,2013-05-25 19:42:00,
2013-05-25 16:11:00,61.0,34.0,-100.00,North,357,5.0,12.0,36,0.00,,,0.00,859.000000,,2013-05-25 20:11:00,
2013-05-25 16:22:00,61.0,34.0,-100.00,North,357,5.0,12.0,36,0.00,,,0.00,859.000000,,2013-05-25 20:22:00,
2013-05-25 16:32:00,61.0,34.0,-100.00,North,357,5.0,12.0,36,0.00,,,0.00,859.000000,,2013-05-25 20:32:00,
2013-05-25 16:42:00,61.0,34.0,-100.00,North,357,5.0,12.0,36,0.00,,,0.00,859.000000,,2013-05-25 20:42:00,
2013-05-25 17:11:00,61.0,30.0,-100.00,NNE,23,7.0,15.0,31,0.00,,,0.00,762.000000,,2013-05-25 21:11:00,
2013-05-25 17:22:00,61.0,30.0,-100.00,NNE,23,7.0,15.0,31,0.00,,,0.00,762.000000,,2013-05-25 21:22:00,
2013-05-25 17:33:00,61.0,30.0,-100.00,NNE,23,7.0,15.0,31,0.00,,,0.00,762.000000,,2013-05-25 21:33:00,
2013-05-25 17:43:00,61.0,30.0,-100.00,NNE,23,7.0,15.0,31,0.00,,,0.00,762.000000,,2013-05-25 21:43:00,
2013-05-25 18:13:00,61.0,28.0,-100.00,NNE,29,8.0,14.0,28,0.00,,,0.00,621.000000,,2013-05-25 22:13:00,
2013-05-25 18:23:00,61.0,28.0,-100.00,NNE,29,8.0,14.0,28,0.00,,,0.00,621.000000,,2013-05-25 22:23:00,
2013-05-25 18:33:00,61.0,28.0,-100.00,NNE,29,8.0,14.0,28,0.00,,,0.00,621.000000,,2013-05-25 22:33:00,
2013-05-25 18:42:00,61.0,28.0,-100.00,NNE,29,8.0,14.0,28,0.00,,,0.00,621.000000,,2013-05-25 22:42:00,
2013-05-25 19:12:00,60.0,25.0,-100.00,NNE,26,8.0,18.0,26,0.00,,,0.00,457.000000,,2013-05-25 23:12:00,
2013-05-25 19:22:00,60.0,25.0,-100.00,NNE,26,8.0,18.0,26,0.00,,,0.00,457.000000,,2013-05-25 23:22:00,
2013-05-25 19:32:00,60.0,25.0,-100.00,NNE,26,8.0,18.0,26,0.00,,,0.00,457.000000,,2013-05-25 23:32:00,
2013-05-25 19:42:00,60.0,25.0,-100.00,NNE,26,8.0,18.0,26,0.00,,,0.00,457.000000,,2013-05-25 23:42:00,
2013-05-25 20:12:00,59.0,21.0,-100.00,NNE,27,7.0,15.0,23,0.00,,,0.00,255.000000,,2013-05-26 00:12:00,
2013-05-25 20:22:00,59.0,21.0,-100.00,NNE,27,7.0,15.0,23,0.00,,,0.00,255.000000,,2013-05-26 00:22:00,
2013-05-25 20:32:00,59.0,21.0,-100.00,NNE,27,7.0,15.0,23,0.00,,,0.00,255.000000,,2013-05-26 00:32:00,
2013-05-25 20:42:00,59.0,21.0,-100.00,NNE,27,7.0,15.0,23,0.00,,,0.00,255.000000,,2013-05-26 00:42:00,
2013-05-25 21:11:00,55.0,27.0,-100.00,NNE,16,3.0,9.0,34,0.00,,,0.00,105.000000,,2013-05-26 01:11:00,
2013-05-25 21:21:00,55.0,27.0,-100.00,NNE,16,3.0,9.0,34,0.00,,,0.00,105.000000,,2013-05-26 01:21:00,
2013-05-25 21:32:00,55.0,27.0,-100.00,NNE,16,3.0,9.0,34,0.00,,,0.00,105.000000,,2013-05-26 01:32:00,
2013-05-25 21:42:00,55.0,27.0,-100.00,NNE,16,3.0,9.0,34,0.00,,,0.00,105.000000,,2013-05-26 01:42:00,
2013-05-25 23:11:00,39.0,35.0,-100.00,West,277,0.0,3.0,86,-99.99,,,0.00,0.000000,,2013-05-26 03:11:00,
2013-05-25 23:22:00,39.0,35.0,-100.00,West,277,0.0,3.0,86,-99.99,,,0.00,0.000000,,2013-05-26 03:22:00,
2013-05-25 23:33:00,39.0,35.0,-100.00,West,277,0.0,3.0,86,-99.99,,,0.00,0.000000,,2013-05-26 03:33:00,
2013-05-25 23:43:00,39.0,35.0,-100.00,West,277,0.0,3.0,86,-99.99,,,0.00,0.000000,,2013-05-26 03:43:00,